createdAt,value
2022-10-03T00:00:23.277Z,11.20
2022-10-03T00:03:22.001Z,11.80
2022-10-03T00:06:10.891Z,11.20
2022-10-03T00:08:47.572Z,11.40
2022-10-03T00:11:45.162Z,11.20
2022-10-03T00:14:18.093Z,11.10
2022-10-03T00:17:00.077Z,11.20
2022-10-03T00:19:50.562Z,11.10
2022-10-03T00:22:49.075Z,11.20
2022-10-03T00:25:28.079Z,11.20
2022-10-03T00:28:13.963Z,11.20
2022-10-03T00:31:04.161Z,11.00
2022-10-03T00:33:49.613Z,11.00
2022-10-03T00:36:58.147Z,11.00
2022-10-03T00:39:50.474Z,10.80
2022-10-03T00:42:23.174Z,10.70
2022-10-03T00:45:08.726Z,10.70
2022-10-03T00:48:03.307Z,10.70
2022-10-03T00:50:59.934Z,10.70
2022-10-03T00:54:18.555Z,10.70
2022-10-03T00:57:13.356Z,10.60
2022-10-03T01:00:14.136Z,10.50
2022-10-03T01:02:40.937Z,10.60
2022-10-03T01:05:38.714Z,11.10
2022-10-03T01:08:44.860Z,10.90
2022-10-03T01:11:20.487Z,10.90
2022-10-03T01:14:02.348Z,11.00
2022-10-03T01:16:58.871Z,11.00
2022-10-03T01:19:45.917Z,10.90
2022-10-03T01:22:31.618Z,10.80
2022-10-03T01:25:19.042Z,10.80
2022-10-03T01:28:31.415Z,10.80
2022-10-03T01:31:06.147Z,10.80
2022-10-03T01:33:42.449Z,11.20
2022-10-03T01:36:19.491Z,11.10
2022-10-03T01:38:58.532Z,11.50
2022-10-03T01:41:25.312Z,10.60
2022-10-03T01:44:00.656Z,10.60
2022-10-03T01:46:52.519Z,10.30
2022-10-03T01:49:22.348Z,11.00
2022-10-03T01:52:09.454Z,10.70
2022-10-03T01:54:40.313Z,10.20
2022-10-03T01:57:37.363Z,10.20
2022-10-03T02:00:17.871Z,10.20
2022-10-03T02:03:03.349Z,10.20
2022-10-03T02:05:49.971Z,10.00
2022-10-03T02:08:22.586Z,9.90
2022-10-03T02:11:08.339Z,9.50
2022-10-03T02:13:48.341Z,9.50
2022-10-03T02:16:42.598Z,9.90
2022-10-03T02:19:36.445Z,9.50
2022-10-03T02:22:03.454Z,9.50
2022-10-03T02:24:36.359Z,9.40
2022-10-03T02:27:24.980Z,10.00
2022-10-03T02:30:04.971Z,9.60
2022-10-03T02:32:56.664Z,9.70
2022-10-03T02:35:42.978Z,9.60
2022-10-03T02:38:29.353Z,9.50
2022-10-03T02:41:24.371Z,9.40
2022-10-03T02:44:20.289Z,9.40
2022-10-03T02:47:05.314Z,9.10
2022-10-03T02:50:09.153Z,9.10
2022-10-03T02:53:14.240Z,9.20
2022-10-03T02:56:08.795Z,9.20
2022-10-03T02:58:57.246Z,9.10
2022-10-03T03:01:48.497Z,9.10
2022-10-03T03:04:53.027Z,9.00
2022-10-03T03:07:30.747Z,9.00
2022-10-03T03:10:05.525Z,8.70
2022-10-03T03:12:33.261Z,8.20
2022-10-03T03:15:25.696Z,8.60
2022-10-03T03:18:19.431Z,8.50
2022-10-03T03:21:13.058Z,8.60
2022-10-03T03:23:55.157Z,8.70
2022-10-03T03:26:25.317Z,8.70
2022-10-03T03:28:59.909Z,8.70
2022-10-03T03:31:33.190Z,9.10
2022-10-03T03:34:13.520Z,8.70
2022-10-03T03:37:11.711Z,8.60
2022-10-03T03:40:13.490Z,8.60
2022-10-03T03:43:01.828Z,8.60
2022-10-03T03:45:50.571Z,8.40
2022-10-03T03:48:42.424Z,8.20
2022-10-03T03:51:33.250Z,8.20
2022-10-03T03:54:19.504Z,8.10
2022-10-03T03:57:24.160Z,8.20
2022-10-03T03:59:50.932Z,8.30
2022-10-03T04:02:39.314Z,8.70
2022-10-03T04:05:28.233Z,7.90
2022-10-03T04:08:19.012Z,7.90
2022-10-03T04:10:51.610Z,7.90
2022-10-03T04:13:38.892Z,8.10
2022-10-03T04:16:14.812Z,8.20
2022-10-03T04:19:09.546Z,8.30
2022-10-03T04:21:46.296Z,8.40
2022-10-03T04:24:49.899Z,8.30
2022-10-03T04:27:49.303Z,8.10
2022-10-03T04:30:30.424Z,7.70
2022-10-03T04:33:04.477Z,7.80
2022-10-03T04:36:10.178Z,7.60
2022-10-03T04:38:49.149Z,8.00
2022-10-03T04:41:27.754Z,8.30
2022-10-03T04:44:17.468Z,7.80
2022-10-03T04:46:54.602Z,7.80
2022-10-03T04:49:56.135Z,8.60
2022-10-03T04:52:49.655Z,8.10
2022-10-03T04:55:37.835Z,8.20
2022-10-03T04:58:39.255Z,7.90
2022-10-03T05:01:24.874Z,7.80
2022-10-03T05:04:22.610Z,7.50
2022-10-03T05:06:58.184Z,7.50
2022-10-03T05:09:40.051Z,7.70
2022-10-03T05:12:28.899Z,7.80
2022-10-03T05:15:10.995Z,7.80
2022-10-03T05:18:15.999Z,7.80
2022-10-03T05:20:53.825Z,7.60
2022-10-03T05:24:03.026Z,7.70
2022-10-03T05:26:59.758Z,7.80
2022-10-03T05:29:41.540Z,7.60
2022-10-03T05:32:30.639Z,7.70
2022-10-03T05:35:24.829Z,7.60
2022-10-03T05:38:36.078Z,7.70
2022-10-03T05:41:26.141Z,7.80
2022-10-03T05:44:40.927Z,8.00
2022-10-03T05:47:36.290Z,8.00
2022-10-03T05:50:18.136Z,8.50
2022-10-03T05:53:03.259Z,8.40
2022-10-03T05:55:35.872Z,7.80
2022-10-03T05:58:08.598Z,7.60
2022-10-03T06:00:38.275Z,7.80
2022-10-03T06:03:23.588Z,7.70
2022-10-03T06:05:56.178Z,8.00
2022-10-03T06:08:48.527Z,8.10
2022-10-03T06:11:47.597Z,8.10
2022-10-03T06:14:38.725Z,8.10
2022-10-03T06:17:17.400Z,8.80
2022-10-03T06:20:16.729Z,7.80
2022-10-03T06:23:08.351Z,7.70
2022-10-03T06:25:38.093Z,7.60
2022-10-03T06:28:26.988Z,8.00
2022-10-03T06:30:56.785Z,8.00
2022-10-03T06:33:26.816Z,8.20
2022-10-03T06:36:14.726Z,9.50
2022-10-03T06:39:19.427Z,8.40
2022-10-03T06:42:16.299Z,8.50
2022-10-03T06:44:46.162Z,8.30
2022-10-03T06:47:51.386Z,8.10
2022-10-03T06:50:30.092Z,8.30
2022-10-03T06:53:17.448Z,8.30
2022-10-03T06:56:05.819Z,8.40
2022-10-03T06:59:01.854Z,8.60
2022-10-03T07:01:40.922Z,8.50
2022-10-03T07:04:46.685Z,8.50
2022-10-03T07:07:30.188Z,8.30
2022-10-03T07:10:14.824Z,8.20
2022-10-03T07:13:12.058Z,8.40
2022-10-03T07:16:27.668Z,8.70
2022-10-03T07:19:13.357Z,8.90
2022-10-03T07:22:08.522Z,9.00
2022-10-03T07:24:54.834Z,9.10
2022-10-03T07:27:48.680Z,9.20
2022-10-03T07:30:23.258Z,9.30
2022-10-03T07:33:30.383Z,9.30
2022-10-03T07:36:40.772Z,9.50
2022-10-03T07:39:10.515Z,9.40
2022-10-03T07:42:04.549Z,9.50
2022-10-03T07:44:42.649Z,9.60
2022-10-03T07:47:34.625Z,9.70
2022-10-03T07:50:18.627Z,9.80
2022-10-03T07:53:23.244Z,9.80
2022-10-03T07:56:06.080Z,9.90
2022-10-03T07:58:55.075Z,9.70
2022-10-03T08:01:37.425Z,9.40
2022-10-03T08:04:14.446Z,9.30
2022-10-03T08:06:45.488Z,9.30
2022-10-03T08:09:50.535Z,9.30
2022-10-03T08:12:35.290Z,9.40
2022-10-03T08:15:10.981Z,9.70
2022-10-03T08:18:14.196Z,10.00
2022-10-03T08:20:49.857Z,10.10
2022-10-03T08:23:42.601Z,10.20
2022-10-03T08:26:36.090Z,10.30
2022-10-03T08:29:40.205Z,10.60
2022-10-03T08:32:27.175Z,10.80
2022-10-03T08:35:16.230Z,10.90
2022-10-03T08:38:21.515Z,11.10
2022-10-03T08:41:37.861Z,11.00
2022-10-03T08:44:25.032Z,11.10
2022-10-03T08:47:32.697Z,11.10
2022-10-03T08:50:18.120Z,11.10
2022-10-03T08:53:02.836Z,11.00
2022-10-03T08:55:35.266Z,11.10
2022-10-03T08:58:26.648Z,11.30
2022-10-03T09:01:16.014Z,11.20
2022-10-03T09:03:55.171Z,11.40
2022-10-03T09:07:12.193Z,11.60
2022-10-03T09:09:42.501Z,11.70
2022-10-03T09:12:33.072Z,11.90
2022-10-03T09:15:19.054Z,12.00
2022-10-03T09:18:10.532Z,12.20
2022-10-03T09:21:20.014Z,12.20
2022-10-03T09:24:07.528Z,12.50
2022-10-03T09:27:12.438Z,12.40
2022-10-03T09:30:20.044Z,12.40
2022-10-03T09:32:49.485Z,12.40
2022-10-03T09:35:54.221Z,12.60
2022-10-03T09:38:33.219Z,13.00
2022-10-03T09:40:59.925Z,13.00
2022-10-03T09:43:57.353Z,13.30
2022-10-03T09:46:36.852Z,13.60
2022-10-03T09:49:52.081Z,13.70
2022-10-03T09:52:56.978Z,13.90
2022-10-03T09:55:36.565Z,14.00
2022-10-03T09:58:03.240Z,14.10
2022-10-03T10:01:13.209Z,14.00
2022-10-03T10:03:46.219Z,14.00
2022-10-03T10:06:40.631Z,14.10
2022-10-03T10:09:22.629Z,14.20
2022-10-03T10:12:30.649Z,14.20
2022-10-03T10:15:42.132Z,14.30
2022-10-03T10:18:30.167Z,14.40
2022-10-03T10:21:50.600Z,14.60
2022-10-03T10:24:42.036Z,14.90
2022-10-03T10:27:52.508Z,15.10
2022-10-03T10:30:48.968Z,15.20
2022-10-03T10:33:53.111Z,15.10
2022-10-03T10:36:38.765Z,14.80
2022-10-03T10:39:29.857Z,14.70
2022-10-03T10:42:08.082Z,14.60
2022-10-03T10:45:19.021Z,14.50
2022-10-03T10:48:04.285Z,14.30
2022-10-03T10:50:59.242Z,14.00
2022-10-03T10:53:44.631Z,13.90
2022-10-03T10:56:52.952Z,13.70
2022-10-03T10:59:47.577Z,13.70
2022-10-03T11:02:29.266Z,13.60
2022-10-03T11:05:20.138Z,13.60
2022-10-03T11:08:14.692Z,13.60
2022-10-03T11:11:13.926Z,13.40
2022-10-03T11:13:58.777Z,13.80
2022-10-03T11:16:41.980Z,13.90
2022-10-03T11:19:35.276Z,14.00
2022-10-03T11:22:33.924Z,14.30
2022-10-03T11:25:28.780Z,14.70
2022-10-03T11:28:33.180Z,15.00
2022-10-03T11:31:45.327Z,15.10
2022-10-03T11:34:42.643Z,15.50
2022-10-03T11:37:29.104Z,15.50
2022-10-03T11:40:19.763Z,15.10
2022-10-03T11:43:01.312Z,14.80
2022-10-03T11:45:34.617Z,14.60
2022-10-03T11:48:07.226Z,14.60
2022-10-03T11:50:45.488Z,14.40
2022-10-03T11:53:34.996Z,14.40
2022-10-03T11:56:16.333Z,14.50
2022-10-03T11:59:12.717Z,14.50
2022-10-03T12:01:55.651Z,14.60
2022-10-03T12:04:50.827Z,15.10
2022-10-03T12:07:39.501Z,15.00
2022-10-03T12:10:40.582Z,15.30
2022-10-03T12:13:18.381Z,15.60
2022-10-03T12:15:54.629Z,15.60
2022-10-03T12:18:34.177Z,15.70
2022-10-03T12:21:21.780Z,15.60
2022-10-03T12:24:13.230Z,15.30
2022-10-03T12:27:01.025Z,15.20
2022-10-03T12:29:32.467Z,15.00
2022-10-03T12:32:37.236Z,15.00
2022-10-03T12:35:25.816Z,14.90
2022-10-03T12:37:58.380Z,14.80
2022-10-03T12:40:39.166Z,14.60
2022-10-03T12:43:42.717Z,14.50
2022-10-03T12:46:52.031Z,14.60
2022-10-03T12:49:24.632Z,15.00
2022-10-03T12:52:01.165Z,14.90
2022-10-03T12:54:48.024Z,14.90
2022-10-03T12:57:36.810Z,15.10
2022-10-03T13:00:27.730Z,15.30
2022-10-03T13:02:58.250Z,15.40
2022-10-03T13:05:55.493Z,15.40
2022-10-03T13:08:40.967Z,15.50
2022-10-03T13:11:26.024Z,15.70
2022-10-03T13:14:06.373Z,16.20
2022-10-03T13:16:45.532Z,16.20
2022-10-03T13:19:17.668Z,16.30
2022-10-03T13:21:45.881Z,16.30
2022-10-03T13:24:35.075Z,16.20
2022-10-03T13:27:29.274Z,15.80
2022-10-03T13:30:21.087Z,15.70
2022-10-03T13:32:54.987Z,15.40
2022-10-03T13:35:51.003Z,15.20
2022-10-03T13:38:51.358Z,15.00
2022-10-03T13:41:30.051Z,15.10
2022-10-03T13:44:17.880Z,15.20
2022-10-03T13:46:54.272Z,15.10
2022-10-03T13:49:32.566Z,15.20
2022-10-03T13:52:07.540Z,15.40
2022-10-03T13:54:53.563Z,15.40
2022-10-03T13:57:54.136Z,15.30
2022-10-03T14:00:24.996Z,15.90
2022-10-03T14:03:11.248Z,16.10
2022-10-03T14:05:38.433Z,16.20
2022-10-03T14:08:05.331Z,16.10
2022-10-03T14:10:50.922Z,16.00
2022-10-03T14:13:56.181Z,15.80
2022-10-03T14:16:42.830Z,15.60
2022-10-03T14:19:47.238Z,15.50
2022-10-03T14:22:30.910Z,15.60
2022-10-03T14:25:32.697Z,16.00
2022-10-03T14:28:24.464Z,16.00
2022-10-03T14:31:12.003Z,16.30
2022-10-03T14:33:44.966Z,16.30
2022-10-03T14:36:21.022Z,16.40
2022-10-03T14:39:02.017Z,16.30
2022-10-03T14:41:56.222Z,16.20
2022-10-03T14:44:27.566Z,16.00
2022-10-03T14:47:03.333Z,15.90
2022-10-03T14:49:53.516Z,15.90
2022-10-03T14:52:43.824Z,15.80
2022-10-03T14:55:13.596Z,15.90
2022-10-03T14:58:10.764Z,15.90
2022-10-03T15:00:43.111Z,15.80
2022-10-03T15:03:33.742Z,16.00
2022-10-03T15:06:02.332Z,16.10
2022-10-03T15:08:57.061Z,16.00
2022-10-03T15:11:35.992Z,15.70
2022-10-03T15:14:06.445Z,15.40
2022-10-03T15:16:39.003Z,15.40
2022-10-03T15:19:11.378Z,15.30
2022-10-03T15:21:43.561Z,15.20
2022-10-03T15:24:14.880Z,15.20
2022-10-03T15:26:51.279Z,15.20
2022-10-03T15:29:20.469Z,15.20
2022-10-03T15:31:51.255Z,15.10
2022-10-03T15:34:40.879Z,15.20
2022-10-03T15:37:19.843Z,15.00
2022-10-03T15:39:48.229Z,15.00
2022-10-03T15:42:23.588Z,15.00
2022-10-03T15:44:54.735Z,14.90
2022-10-03T15:47:28.502Z,14.80
2022-10-03T15:50:04.701Z,14.70
2022-10-03T15:52:53.416Z,14.80
2022-10-03T15:55:39.783Z,14.90
2022-10-03T15:58:16.279Z,14.90
2022-10-03T16:00:48.504Z,14.90
2022-10-03T16:03:32.437Z,14.90
2022-10-03T16:06:02.025Z,14.70
2022-10-03T16:08:32.815Z,14.60
2022-10-03T16:11:21.359Z,14.60
2022-10-03T16:14:06.470Z,14.60
2022-10-03T16:16:41.549Z,14.50
2022-10-03T16:19:20.592Z,14.40
2022-10-03T16:21:54.032Z,14.30
2022-10-03T16:24:35.581Z,14.30
2022-10-03T16:27:18.634Z,14.20
2022-10-03T16:29:56.209Z,14.20
2022-10-03T16:32:27.155Z,14.10
2022-10-03T16:34:59.497Z,14.10
2022-10-03T16:37:28.099Z,14.10
2022-10-03T16:40:04.163Z,14.10
2022-10-03T16:42:43.744Z,13.90
2022-10-03T16:45:32.718Z,13.80
2022-10-03T16:48:28.642Z,13.60
2022-10-03T16:50:56.576Z,13.50
2022-10-03T16:53:24.380Z,13.40
2022-10-03T16:56:00.015Z,13.40
2022-10-03T16:58:31.462Z,13.70
2022-10-03T17:01:32.774Z,13.10
2022-10-03T17:04:20.816Z,13.00
2022-10-03T17:06:50.096Z,12.90
2022-10-03T17:09:40.954Z,12.90
2022-10-03T17:12:18.094Z,12.80
2022-10-03T17:14:45.459Z,12.80
2022-10-03T17:17:49.944Z,12.80
2022-10-03T17:20:42.108Z,12.70
2022-10-03T17:23:48.187Z,12.70
2022-10-03T17:26:29.621Z,12.70
2022-10-03T17:29:13.538Z,12.60
2022-10-03T17:31:58.010Z,12.50
2022-10-03T17:34:33.642Z,12.50
2022-10-03T17:37:26.651Z,12.30
2022-10-03T17:40:03.522Z,12.40
2022-10-03T17:42:33.068Z,12.20
2022-10-03T17:45:25.560Z,12.20
2022-10-03T17:48:12.458Z,12.20
2022-10-03T17:51:05.136Z,12.20
2022-10-03T17:53:36.477Z,12.10
2022-10-03T17:56:13.193Z,12.20
2022-10-03T17:58:45.869Z,11.90
2022-10-03T18:01:18.894Z,11.80
2022-10-03T18:04:02.745Z,12.00
2022-10-03T18:06:32.413Z,11.60
2022-10-03T18:09:02.075Z,12.00
2022-10-03T18:11:33.753Z,12.00
2022-10-03T18:14:11.579Z,11.80
2022-10-03T18:16:53.140Z,11.40
2022-10-03T18:19:25.810Z,11.20
2022-10-03T18:21:53.796Z,11.20
2022-10-03T18:24:26.751Z,11.00
2022-10-03T18:27:06.220Z,11.10
2022-10-03T18:29:35.726Z,11.60
2022-10-03T18:32:25.481Z,10.80
2022-10-03T18:35:15.202Z,11.00
2022-10-03T18:37:44.927Z,10.80
2022-10-03T18:40:17.445Z,10.70
2022-10-03T18:42:50.494Z,10.70
2022-10-03T18:45:30.020Z,10.70
2022-10-03T18:48:20.945Z,10.60
2022-10-03T18:50:56.445Z,10.70
2022-10-03T18:53:35.017Z,10.60
2022-10-03T18:56:26.115Z,10.70
2022-10-03T18:59:08.237Z,10.70
2022-10-03T19:01:54.462Z,10.60
2022-10-03T19:04:24.614Z,10.50
2022-10-03T19:06:53.831Z,10.40
2022-10-03T19:09:39.138Z,10.30
2022-10-03T19:12:21.085Z,10.40
2022-10-03T19:15:00.641Z,10.40
2022-10-03T19:17:36.431Z,10.50
2022-10-03T19:20:26.752Z,10.40
2022-10-03T19:23:18.908Z,10.50
2022-10-03T19:25:52.225Z,10.50
2022-10-03T19:28:27.625Z,10.50
2022-10-03T19:31:16.046Z,10.50
2022-10-03T19:33:48.428Z,10.30
2022-10-03T19:36:29.540Z,10.40
2022-10-03T19:38:58.309Z,10.20
2022-10-03T19:41:52.403Z,10.10
2022-10-03T19:44:27.467Z,10.00
2022-10-03T19:47:06.638Z,9.90
2022-10-03T19:49:44.060Z,9.70
2022-10-03T19:52:27.941Z,9.70
2022-10-03T19:55:15.855Z,9.80
2022-10-03T19:57:48.240Z,9.70
2022-10-03T20:00:14.982Z,9.50
2022-10-03T20:02:43.726Z,9.50
2022-10-03T20:05:22.903Z,9.60
2022-10-03T20:08:35.780Z,9.60
2022-10-03T20:11:18.172Z,9.60
2022-10-03T20:13:48.091Z,9.60
2022-10-03T20:16:18.057Z,9.60
2022-10-03T20:18:48.556Z,10.10
2022-10-03T20:21:20.327Z,9.50
2022-10-03T20:23:48.218Z,9.70
2022-10-03T20:26:29.316Z,9.50
2022-10-03T20:29:44.336Z,9.50
2022-10-03T20:32:16.661Z,9.60
2022-10-03T20:34:54.382Z,9.40
2022-10-03T20:37:36.597Z,9.40
2022-10-03T20:40:46.789Z,9.20
2022-10-03T20:43:19.828Z,9.30
2022-10-03T20:46:03.441Z,9.20
2022-10-03T20:48:36.464Z,9.30
2022-10-03T20:51:04.142Z,9.90
2022-10-03T20:53:31.846Z,9.30
2022-10-03T20:56:11.264Z,9.10
2022-10-03T20:58:52.036Z,9.20
2022-10-03T21:01:31.635Z,9.10
2022-10-03T21:04:13.572Z,8.90
2022-10-03T21:07:08.600Z,8.90
2022-10-03T21:09:46.301Z,9.10
2022-10-03T21:12:19.188Z,9.00
2022-10-03T21:14:51.232Z,9.00
2022-10-03T21:17:19.843Z,9.20
2022-10-03T21:19:52.185Z,9.20
2022-10-03T21:22:23.375Z,8.90
2022-10-03T21:25:07.772Z,9.40
2022-10-03T21:27:34.883Z,9.00
2022-10-03T21:30:16.794Z,9.00
2022-10-03T21:32:58.659Z,8.80
2022-10-03T21:35:35.749Z,8.80
2022-10-03T21:38:24.831Z,8.90
2022-10-03T21:40:57.524Z,8.80
2022-10-03T21:43:42.577Z,8.80
2022-10-03T21:46:14.463Z,8.80
2022-10-03T21:48:59.230Z,8.90
2022-10-03T21:51:57.412Z,9.00
2022-10-03T21:54:45.795Z,8.90
2022-10-03T21:57:50.119Z,8.70
2022-10-03T22:00:19.315Z,8.70
2022-10-03T22:02:51.946Z,8.60
2022-10-03T22:05:49.244Z,8.40
2022-10-03T22:08:29.553Z,8.40
2022-10-03T22:11:08.774Z,8.50
2022-10-03T22:13:39.040Z,8.60
2022-10-03T22:16:21.966Z,8.50
2022-10-03T22:19:25.389Z,8.50
2022-10-03T22:22:03.852Z,8.50
2022-10-03T22:25:21.226Z,8.40
2022-10-03T22:28:04.645Z,8.40
2022-10-03T22:30:37.214Z,8.40
2022-10-03T22:33:28.169Z,8.70
2022-10-03T22:35:59.551Z,8.50
2022-10-03T22:38:32.686Z,8.50
2022-10-03T22:41:05.307Z,8.40
2022-10-03T22:43:35.946Z,8.50
2022-10-03T22:46:04.882Z,8.60
2022-10-03T22:48:36.200Z,9.00
2022-10-03T22:51:09.099Z,8.50
2022-10-03T22:53:37.589Z,8.60
2022-10-03T22:56:42.862Z,8.40
2022-10-03T22:59:20.270Z,8.20
2022-10-03T23:01:49.092Z,8.10
2022-10-03T23:04:30.715Z,8.20
2022-10-03T23:07:36.167Z,8.10
2022-10-03T23:10:17.995Z,8.30
2022-10-03T23:13:02.460Z,8.30
2022-10-03T23:15:32.152Z,8.30
2022-10-03T23:18:11.112Z,8.30
2022-10-03T23:21:04.740Z,8.40
2022-10-03T23:23:58.178Z,8.60
2022-10-03T23:26:59.214Z,8.60
2022-10-03T23:29:26.052Z,8.60
2022-10-03T23:32:09.926Z,8.50
2022-10-03T23:34:36.691Z,8.50
2022-10-03T23:37:15.536Z,8.50
2022-10-03T23:39:44.657Z,8.50
2022-10-03T23:42:20.512Z,8.50
2022-10-03T23:45:19.213Z,8.40
2022-10-03T23:47:53.089Z,8.30
2022-10-03T23:50:26.788Z,8.30
2022-10-03T23:52:57.514Z,8.20
2022-10-03T23:55:28.561Z,8.20
2022-10-03T23:57:55.683Z,8.10
